Time;durP1;ratioP1;P1;durP2;ratioP2;P2;SDS_P1;SDS_P2;PMS_P1;PMS_P2;Temp;Humidity;BMP_temperature;BMP_pressure;BME280_temperature;BME280_humidity;BME280_pressure;Samples;Min_cycle;Max_cycle;Signal;HPM_P1;HPM_P2
2022/01/12 00:00:25;;;;;;;26.00;17.15;;;3.90;99.90;;;;;;6124715;23;20033;-83
2022/01/12 00:02:51;;;;;;;25.80;17.83;;;3.90;99.90;;;;;;6124351;23;20014;-83
2022/01/12 00:05:18;;;;;;;34.65;23.17;;;3.90;99.90;;;;;;6123386;23;20002;-83
2022/01/12 00:07:46;;;;;;;28.15;19.20;;;4.50;99.90;;;;;;6124506;23;20349;-83
2022/01/12 00:10:12;;;;;;;28.15;19.60;;;4.00;99.90;;;;;;6123361;23;20025;-83
2022/01/12 00:12:37;;;;;;;26.45;17.52;;;3.90;99.90;;;;;;6125457;23;20052;-83
2022/01/12 00:15:03;;;;;;;25.10;17.35;;;4.40;99.90;;;;;;6124266;23;20093;-83
2022/01/12 00:17:29;;;;;;;25.27;17.20;;;4.00;99.90;;;;;;6124181;23;20084;-84
2022/01/12 00:19:54;;;;;;;24.73;16.65;;;4.00;99.90;;;;;;6125737;23;20005;-83
2022/01/12 00:22:20;;;;;;;24.42;17.48;;;4.40;99.90;;;;;;6124364;23;20024;-83
2022/01/12 00:33:10;;;;;;;28.20;18.85;;;3.80;99.90;;;;;;6124233;23;20017;-83
2022/01/12 00:35:37;;;;;;;25.25;17.65;;;4.30;99.90;;;;;;6124827;23;20010;-83
2022/01/12 00:38:03;;;;;;;25.48;17.50;;;3.80;99.90;;;;;;6124284;23;20045;-83
2022/01/12 00:40:29;;;;;;;26.02;16.98;;;4.30;99.90;;;;;;6123898;23;20002;-83
2022/01/12 00:42:55;;;;;;;26.17;17.92;;;4.40;99.90;;;;;;6123305;23;20094;-83
2022/01/12 00:45:21;;;;;;;25.17;17.45;;;3.70;99.90;;;;;;6125174;23;20002;-83
2022/01/12 00:47:47;;;;;;;28.95;20.63;;;3.50;99.90;;;;;;6125138;23;20033;-83
2022/01/12 00:50:12;;;;;;;27.92;18.67;;;3.40;99.90;;;;;;6124187;23;20002;-83
2022/01/12 00:52:38;;;;;;;25.27;17.63;;;3.20;99.90;;;;;;6125238;23;20013;-83
2022/01/12 00:55:04;;;;;;;28.70;18.35;;;3.60;99.90;;;;;;6123854;23;20440;-83
2022/01/12 00:57:31;;;;;;;25.10;17.23;;;3.00;99.90;;;;;;6123972;23;20440;-83
2022/01/12 00:59:57;;;;;;;26.63;18.30;;;2.80;99.90;;;;;;6124495;23;20006;-83
2022/01/12 01:02:22;;;;;;;27.25;18.27;;;3.40;99.90;;;;;;6123943;23;20351;-83
2022/01/12 01:04:49;;;;;;;27.92;18.98;;;3.50;99.90;;;;;;6124674;23;19998;-83
2022/01/12 01:07:14;;;;;;;26.75;18.48;;;2.80;99.90;;;;;;6124760;23;20390;-83
2022/01/12 01:09:46;;;;;;;30.40;19.63;;;2.70;99.90;;;;;;6124656;23;20065;-83
2022/01/12 01:12:12;;;;;;;29.48;18.67;;;3.40;99.90;;;;;;6124302;23;20066;-83
2022/01/12 01:15:00;;;;;;;28.05;19.15;;;2.60;99.90;;;;;;6123232;23;19998;-83
2022/01/12 01:25:39;;;;;;;29.95;18.30;;;2.60;99.90;;;;;;6125970;23;20021;-83
2022/01/12 01:28:06;;;;;;;29.20;19.40;;;3.00;99.90;;;;;;6125916;23;20002;-83
2022/01/12 01:30:35;;;;;;;31.80;19.52;;;2.70;99.90;;;;;;6125839;23;20069;-83
2022/01/12 01:33:05;;;;;;;27.13;18.38;;;2.70;99.90;;;;;;6126592;23;20006;-83
2022/01/12 01:35:33;;;;;;;28.60;18.38;;;2.80;99.90;;;;;;6126019;23;20365;-83
2022/01/12 01:38:00;;;;;;;28.45;18.67;;;2.90;99.90;;;;;;6125297;23;20460;-83
2022/01/12 01:40:26;;;;;;;26.65;19.15;;;3.00;99.90;;;;;;6126480;23;20028;-83
2022/01/12 01:53:37;;;;;;;32.65;19.63;;;3.10;99.90;;;;;;6125396;23;20065;-82
2022/01/12 01:56:03;;;;;;;29.75;18.65;;;3.10;99.90;;;;;;6125448;23;20480;-83
2022/01/12 01:58:28;;;;;;;32.83;20.50;;;3.10;99.90;;;;;;6125520;23;20032;-83
2022/01/12 02:00:54;;;;;;;31.65;19.92;;;3.00;99.90;;;;;;6126084;23;20444;-83
2022/01/12 02:03:20;;;;;;;30.38;19.17;;;2.80;99.90;;;;;;6126488;23;20014;-82
2022/01/12 02:05:47;;;;;;;28.52;18.42;;;2.80;99.90;;;;;;6125313;23;20061;-82
2022/01/12 02:08:13;;;;;;;29.33;19.08;;;2.70;99.90;;;;;;6125933;23;20341;-83
2022/01/12 02:10:38;;;;;;;29.92;18.83;;;2.70;99.90;;;;;;6125733;23;20086;-83
2022/01/12 02:13:04;;;;;;;26.92;17.92;;;2.70;99.90;;;;;;6125499;23;20013;-83
2022/01/12 02:15:30;;;;;;;29.88;19.05;;;2.70;99.90;;;;;;6125320;23;20026;-83
2022/01/12 02:40:35;;;;;;;29.40;19.77;;;2.50;99.90;;;;;;6007106;23;20008;-82
2022/01/12 02:53:40;;;;;;;31.45;19.50;;;2.50;99.90;;;;;;5923844;24;20005;-82
2022/01/12 02:56:22;;;;;;;34.80;20.95;;;3.00;99.90;;;;;;6005392;23;20022;-83
2022/01/12 02:58:49;;;;;;;30.05;19.20;;;2.60;99.90;;;;;;6007849;23;20501;-83
2022/01/12 03:04:03;;;;;;;32.65;20.23;;;2.60;99.90;;;;;;6006826;23;20020;-82
2022/01/12 03:06:33;;;;;;;32.10;20.23;;;3.30;99.90;;;;;;6007734;23;20035;-83
2022/01/12 03:08:59;;;;;;;30.20;19.58;;;3.20;99.90;;;;;;6007221;23;20011;-82
2022/01/12 03:11:26;;;;;;;29.60;18.75;;;2.80;99.90;;;;;;6006981;23;20324;-83
2022/01/12 03:13:53;;;;;;;32.40;20.15;;;2.90;99.90;;;;;;6007378;23;20008;-83
2022/01/12 03:16:23;;;;;;;29.88;19.63;;;3.00;99.90;;;;;;6007031;23;20258;-83
2022/01/12 03:18:53;;;;;;;28.10;19.05;;;3.10;99.90;;;;;;6006657;23;20450;-82
2022/01/12 03:21:22;;;;;;;30.00;19.92;;;3.30;99.90;;;;;;6007716;23;20046;-83
2022/01/12 03:23:49;;;;;;;29.23;20.25;;;3.50;99.90;;;;;;6007499;23;20136;-83
2022/01/12 03:26:15;;;;;;;32.42;20.45;;;2.90;99.90;;;;;;6006734;23;20427;-83
2022/01/12 03:28:42;;;;;;;28.90;19.98;;;3.10;99.90;;;;;;6093988;23;20006;-83
2022/01/12 03:38:58;;;;;;;29.77;19.38;;;3.00;99.90;;;;;;6124629;23;20081;-83
2022/01/12 03:41:26;;;;;;;27.23;18.15;;;3.00;99.90;;;;;;6124080;23;20010;-82
2022/01/12 03:43:52;;;;;;;29.05;19.42;;;3.00;99.90;;;;;;6124669;23;20006;-83
2022/01/12 03:46:22;;;;;;;29.00;19.83;;;2.90;99.90;;;;;;6124650;23;20009;-83
2022/01/12 03:48:48;;;;;;;27.20;18.42;;;3.50;99.90;;;;;;6124025;23;20010;-83
2022/01/12 03:51:14;;;;;;;29.80;19.65;;;3.70;99.90;;;;;;6125189;23;20013;-82
2022/01/12 03:53:39;;;;;;;27.35;18.65;;;3.60;99.90;;;;;;6124645;23;20057;-83
2022/01/12 03:56:05;;;;;;;29.20;19.33;;;3.10;99.90;;;;;;6123733;23;20010;-83
2022/01/12 03:58:30;;;;;;;30.70;18.58;;;3.20;99.90;;;;;;6125298;23;19998;-83
2022/01/12 04:00:56;;;;;;;31.58;19.90;;;3.20;99.90;;;;;;6124323;23;20072;-83
2022/01/12 04:03:22;;;;;;;30.05;20.05;;;3.10;99.90;;;;;;6123845;23;20014;-83
2022/01/12 04:08:31;;;;;;;28.02;18.85;;;2.90;99.90;;;;;;6124472;23;20467;-83
2022/01/12 04:11:00;;;;;;;29.95;19.45;;;2.90;99.90;;;;;;6123772;23;20002;-83
2022/01/12 04:13:30;;;;;;;29.27;18.70;;;3.50;99.90;;;;;;6124327;23;20086;-83
2022/01/12 04:16:00;;;;;;;31.67;20.65;;;2.90;99.90;;;;;;6125110;23;20002;-83
2022/01/12 04:18:26;;;;;;;32.55;20.05;;;3.00;99.90;;;;;;6123999;23;20002;-82
2022/01/12 04:20:52;;;;;;;27.55;19.55;;;3.00;99.90;;;;;;6124652;23;20029;-83
2022/01/12 04:23:19;;;;;;;27.65;19.10;;;3.60;99.90;;;;;;6124564;23;20014;-82
2022/01/12 04:25:47;;;;;;;28.27;19.23;;;3.70;99.90;;;;;;6124194;23;20005;-83
2022/01/12 04:28:14;;;;;;;30.13;19.85;;;3.10;99.90;;;;;;6124991;23;20002;-83
2022/01/12 04:30:40;;;;;;;28.05;19.67;;;3.40;99.90;;;;;;6124347;23;20333;-83
2022/01/12 04:33:06;;;;;;;29.85;19.20;;;3.00;99.90;;;;;;6124200;23;20016;-83
2022/01/12 04:35:39;;;;;;;26.70;18.33;;;2.90;99.90;;;;;;6125261;23;20014;-83
2022/01/12 04:38:05;;;;;;;31.17;19.40;;;2.90;99.90;;;;;;6125256;23;20029;-83
2022/01/12 04:40:33;;;;;;;28.15;18.02;;;2.90;99.90;;;;;;6123724;23;20025;-82
2022/01/12 04:42:58;;;;;;;28.13;19.10;;;2.90;99.90;;;;;;6124125;23;20014;-83
2022/01/12 04:50:27;;;;;;;27.73;19.40;;;2.80;99.90;;;;;;6124456;23;20002;-83
2022/01/12 04:52:53;;;;;;;27.33;18.50;;;2.90;99.90;;;;;;6124637;23;20072;-83
2022/01/12 04:55:19;;;;;;;27.10;18.33;;;2.80;99.90;;;;;;6123156;23;20026;-83
2022/01/12 04:57:45;;;;;;;28.23;19.88;;;2.80;99.90;;;;;;6125847;23;20065;-83
2022/01/12 05:00:16;;;;;;;29.98;20.17;;;3.40;99.90;;;;;;6125808;23;20009;-83
2022/01/12 05:13:28;;;;;;;32.58;19.98;;;2.80;99.90;;;;;;6126068;23;20069;-82
2022/01/12 05:15:55;;;;;;;29.48;19.58;;;2.40;99.90;;;;;;6099723;23;20433;-83
2022/01/12 05:18:21;;;;;;;28.00;18.00;;;2.40;99.90;;;;;;6124836;23;20433;-83
2022/01/12 05:20:46;;;;;;;27.85;18.55;;;2.30;99.90;;;;;;6125597;23;20017;-83
2022/01/12 05:23:13;;;;;;;25.27;17.85;;;2.30;99.90;;;;;;6125760;23;20017;-83
2022/01/12 05:25:40;;;;;;;26.67;18.45;;;2.30;99.90;;;;;;6125562;23;20073;-83
2022/01/12 05:28:06;;;;;;;28.33;18.65;;;2.40;99.90;;;;;;6126054;23;20496;-82
2022/01/12 05:30:32;;;;;;;30.05;19.90;;;2.40;99.90;;;;;;6125542;23;20002;-83
2022/01/12 05:32:59;;;;;;;27.73;18.40;;;2.30;99.90;;;;;;6126756;23;20436;-82
2022/01/12 05:35:31;;;;;;;26.25;18.55;;;2.30;99.90;;;;;;6127312;23;20459;-82
2022/01/12 05:37:57;;;;;;;25.05;17.70;;;2.30;99.90;;;;;;6125587;23;20527;-82
2022/01/12 05:40:23;;;;;;;27.30;18.60;;;2.30;99.90;;;;;;6125125;23;20073;-82
2022/01/12 05:42:51;;;;;;;27.60;18.63;;;2.30;99.90;;;;;;6125419;23;20025;-82
2022/01/12 05:45:18;;;;;;;27.67;19.17;;;2.40;99.90;;;;;;6126082;23;20332;-82
2022/01/12 05:50:12;;;;;;;30.80;20.60;;;2.10;99.90;;;;;;6125880;23;20005;-82
2022/01/12 05:52:38;;;;;;;30.45;19.65;;;2.20;99.90;;;;;;6125818;23;20333;-82
2022/01/12 05:55:05;;;;;;;30.27;20.60;;;2.90;99.90;;;;;;6124791;23;20006;-82
2022/01/12 05:57:31;;;;;;;28.52;19.10;;;2.20;99.90;;;;;;6125834;23;20043;-82
2022/01/12 05:59:58;;;;;;;29.02;20.35;;;2.30;99.90;;;;;;6126132;23;20370;-82
2022/01/12 06:02:23;;;;;;;27.35;19.98;;;2.30;99.90;;;;;;6125727;23;20336;-83
2022/01/12 06:04:49;;;;;;;28.98;19.48;;;2.30;99.90;;;;;;6125873;23;20002;-83
2022/01/12 06:07:15;;;;;;;25.50;18.63;;;2.50;99.90;;;;;;6126288;23;20010;-82
2022/01/12 06:09:41;;;;;;;25.00;18.55;;;2.50;99.90;;;;;;6124584;23;20417;-82
2022/01/12 06:12:07;;;;;;;29.50;19.60;;;2.50;99.90;;;;;;6125136;23;20002;-83
2022/01/12 06:14:33;;;;;;;26.48;18.30;;;2.50;99.90;;;;;;6124931;23;20013;-83
2022/01/12 06:16:58;;;;;;;28.67;19.80;;;2.60;99.90;;;;;;6125182;23;20329;-83
2022/01/12 06:19:24;;;;;;;26.75;18.92;;;2.50;99.90;;;;;;6125545;23;20006;-83
2022/01/12 06:21:50;;;;;;;29.67;20.30;;;2.40;99.90;;;;;;6125349;23;20018;-83
2022/01/12 06:24:16;;;;;;;25.88;18.65;;;2.50;99.90;;;;;;6124931;23;20337;-82
2022/01/12 06:26:43;;;;;;;26.25;19.15;;;2.50;99.90;;;;;;6125785;23;20054;-83
2022/01/12 06:31:39;;;;;;;29.60;20.40;;;2.50;99.90;;;;;;6125616;23;20002;-82
2022/01/12 06:34:05;;;;;;;28.58;20.45;;;2.40;99.90;;;;;;6125622;23;20485;-82
2022/01/12 06:36:31;;;;;;;27.77;19.08;;;2.40;99.90;;;;;;6125763;23;20009;-82
2022/01/12 06:38:57;;;;;;;30.42;19.20;;;2.40;99.90;;;;;;6124932;23;20370;-82
2022/01/12 06:41:24;;;;;;;29.15;19.23;;;2.40;99.90;;;;;;6125062;23;19998;-83
2022/01/12 06:43:50;;;;;;;28.27;20.10;;;2.90;99.90;;;;;;6125956;23;20037;-83
2022/01/12 06:46:21;;;;;;;27.92;19.40;;;2.50;99.90;;;;;;6125503;23;20085;-83
2022/01/12 06:48:47;;;;;;;26.55;19.92;;;2.30;99.90;;;;;;6099462;23;20114;-82
2022/01/12 06:51:13;;;;;;;29.13;19.73;;;2.40;99.90;;;;;;6125165;23;20006;-83
2022/01/12 06:53:38;;;;;;;29.60;19.98;;;2.40;99.90;;;;;;6125050;23;20002;-83
2022/01/12 06:56:05;;;;;;;29.50;20.88;;;2.40;99.90;;;;;;6124125;23;20013;-82
2022/01/12 06:58:31;;;;;;;32.45;20.38;;;3.10;99.90;;;;;;6125288;23;20006;-82
2022/01/12 07:00:56;;;;;;;28.02;20.27;;;2.40;99.90;;;;;;6125158;23;20448;-83
2022/01/12 07:03:22;;;;;;;27.60;19.42;;;2.40;99.90;;;;;;6124993;23;20500;-83
2022/01/12 07:05:48;;;;;;;28.45;18.98;;;2.30;99.90;;;;;;6124365;23;20002;-82
2022/01/12 07:08:14;;;;;;;30.65;18.13;;;2.30;99.90;;;;;;6124018;23;20353;-84
2022/01/12 07:10:40;;;;;;;27.33;18.67;;;2.10;99.90;;;;;;6124214;23;20006;-85
2022/01/12 07:13:10;;;;;;;26.98;18.77;;;2.10;99.90;;;;;;6124642;23;20013;-85
2022/01/12 07:15:37;;;;;;;26.48;18.65;;;2.20;99.90;;;;;;6125051;23;20056;-84
2022/01/12 07:18:03;;;;;;;34.20;19.70;;;2.30;99.90;;;;;;6125096;23;20006;-84
2022/01/12 07:20:29;;;;;;;29.52;19.33;;;2.50;99.90;;;;;;6124310;23;20069;-84
2022/01/12 07:22:55;;;;;;;29.70;18.92;;;2.50;99.90;;;;;;6124127;23;20492;-84
2022/01/12 07:25:20;;;;;;;26.80;17.25;;;2.50;99.90;;;;;;6124958;23;20483;-84
2022/01/12 07:27:46;;;;;;;28.52;19.35;;;2.50;99.90;;;;;;6125420;23;20006;-85
2022/01/12 07:30:12;;;;;;;39.05;24.67;;;2.40;99.90;;;;;;6125717;23;20390;-85
2022/01/12 07:32:37;;;;;;;48.65;27.67;;;2.30;99.90;;;;;;6124241;23;20006;-81
2022/01/12 07:35:05;;;;;;;34.92;22.55;;;2.30;99.90;;;;;;6098048;23;20005;-83
2022/01/12 07:37:31;;;;;;;29.52;19.23;;;2.20;99.90;;;;;;6124089;23;20013;-84
2022/01/12 07:39:57;;;;;;;32.38;20.95;;;2.20;99.90;;;;;;6124211;23;20002;-84
2022/01/12 07:42:23;;;;;;;61.55;34.05;;;2.90;99.90;;;;;;6124817;23;20373;-83
2022/01/12 07:44:49;;;;;;;37.30;22.60;;;2.20;99.90;;;;;;6124345;23;20035;-83
2022/01/12 07:47:15;;;;;;;35.33;22.10;;;2.20;99.90;;;;;;6124587;23;20002;-84
2022/01/12 07:49:41;;;;;;;29.73;19.98;;;2.20;99.90;;;;;;6124665;23;20025;-84
2022/01/12 07:52:07;;;;;;;41.67;24.45;;;2.10;99.90;;;;;;6123607;23;20013;-84
2022/01/12 07:54:32;;;;;;;67.25;39.50;;;3.00;99.90;;;;;;6124195;23;20013;-84
2022/01/12 07:56:58;;;;;;;61.60;37.72;;;2.30;99.90;;;;;;6124469;23;20002;-84
2022/01/12 07:59:24;;;;;;;41.03;26.45;;;2.40;99.90;;;;;;6124734;23;20006;-84
2022/01/12 08:01:50;;;;;;;64.43;38.95;;;2.40;99.90;;;;;;6126058;23;20006;-84
2022/01/12 08:04:15;;;;;;;43.17;26.25;;;2.20;99.90;;;;;;6124106;23;20044;-84
2022/01/12 08:06:41;;;;;;;116.05;67.97;;;2.20;99.90;;;;;;6124533;23;20002;-84
2022/01/12 08:09:07;;;;;;;83.22;54.55;;;2.90;99.90;;;;;;6123801;23;20013;-84
2022/01/12 08:11:33;;;;;;;31.27;21.50;;;2.20;99.90;;;;;;6124227;23;20049;-84
2022/01/12 08:13:59;;;;;;;28.33;19.45;;;2.90;99.90;;;;;;6124297;23;20067;-84
2022/01/12 08:16:25;;;;;;;38.67;25.73;;;2.80;99.90;;;;;;6124520;23;20009;-84
2022/01/12 08:18:50;;;;;;;35.47;25.15;;;2.20;99.90;;;;;;6124263;23;20014;-84
2022/01/12 08:21:16;;;;;;;31.48;20.85;;;2.80;99.90;;;;;;6123952;23;20002;-84
2022/01/12 08:23:42;;;;;;;32.72;22.63;;;2.40;99.90;;;;;;6124141;23;20150;-84
2022/01/12 08:26:08;;;;;;;36.83;24.25;;;2.50;99.90;;;;;;6124016;23;20008;-84
2022/01/12 08:28:34;;;;;;;31.60;20.42;;;2.60;99.90;;;;;;6124188;23;20006;-84
2022/01/12 08:30:59;;;;;;;30.17;20.20;;;2.80;99.90;;;;;;6123849;23;20013;-84
2022/01/12 08:33:26;;;;;;;30.38;19.23;;;3.50;99.90;;;;;;6124650;23;20053;-84
2022/01/12 08:35:52;;;;;;;32.42;21.23;;;3.00;99.90;;;;;;6124502;23;20009;-84
2022/01/12 08:38:17;;;;;;;27.75;18.70;;;3.10;99.90;;;;;;6122341;23;20029;-84
2022/01/12 08:40:43;;;;;;;28.17;18.63;;;3.80;99.90;;;;;;6124086;23;20061;-84
2022/01/12 08:43:09;;;;;;;46.20;30.45;;;3.10;99.90;;;;;;6124336;23;20010;-84
2022/01/12 08:45:35;;;;;;;25.88;18.02;;;3.40;99.90;;;;;;6124797;23;20077;-83
2022/01/12 08:48:00;;;;;;;27.17;18.65;;;5.00;99.90;;;;;;6124396;23;20010;-84
2022/01/12 08:50:26;;;;;;;27.02;17.75;;;6.50;99.20;;;;;;6124408;23;19998;-84
2022/01/12 08:52:52;;;;;;;27.55;18.60;;;5.10;99.90;;;;;;6123324;23;20006;-84
2022/01/12 08:55:20;;;;;;;26.80;18.88;;;4.30;99.90;;;;;;6124818;23;20081;-83
2022/01/12 08:57:46;;;;;;;45.78;30.98;;;6.30;99.90;;;;;;6124523;23;20503;-84
2022/01/12 09:00:13;;;;;;;23.65;17.65;;;5.80;99.90;;;;;;6123872;23;20081;-84
2022/01/12 09:02:40;;;;;;;54.10;35.00;;;7.20;97.70;;;;;;6123893;23;20010;-84
2022/01/12 09:05:07;;;;;;;56.00;39.00;;;8.00;87.50;;;;;;6123996;23;20028;-84
2022/01/12 09:07:34;;;;;;;27.83;18.23;;;6.10;97.00;;;;;;6123115;23;20005;-83
2022/01/12 09:09:59;;;;;;;31.27;21.10;;;7.20;94.50;;;;;;6123700;23;20450;-84
2022/01/12 09:12:26;;;;;;;30.05;21.75;;;6.00;97.50;;;;;;6124651;23;20002;-84
2022/01/12 09:14:53;;;;;;;26.35;17.67;;;6.20;99.10;;;;;;6123656;23;20418;-83
2022/01/12 09:17:19;;;;;;;34.22;24.27;;;5.70;99.90;;;;;;6125046;23;20001;-84
2022/01/12 09:19:46;;;;;;;35.03;22.33;;;5.30;99.90;;;;;;6124647;23;20017;-83
2022/01/12 09:22:13;;;;;;;23.83;16.85;;;5.70;99.90;;;;;;6123658;23;20129;-83
2022/01/12 09:24:38;;;;;;;34.40;24.85;;;4.90;99.90;;;;;;6124194;23;20432;-83
2022/01/12 09:27:05;;;;;;;25.25;18.55;;;4.60;99.90;;;;;;6124222;23;20089;-84
2022/01/12 09:29:30;;;;;;;36.95;26.25;;;4.60;99.90;;;;;;6123465;23;20467;-83
2022/01/12 09:31:56;;;;;;;41.25;30.73;;;4.90;99.90;;;;;;6123975;23;20006;-83
2022/01/12 09:34:22;;;;;;;56.92;39.33;;;5.80;99.90;;;;;;6124010;23;20009;-84
2022/01/12 09:36:47;;;;;;;68.88;45.05;;;6.30;99.90;;;;;;6123956;23;20005;-83
2022/01/12 09:39:13;;;;;;;29.77;21.20;;;6.50;99.90;;;;;;6123761;23;20025;-83
2022/01/12 09:41:39;;;;;;;26.38;18.65;;;6.10;99.90;;;;;;6123724;23;20433;-83
2022/01/12 09:44:05;;;;;;;26.98;18.88;;;5.60;99.90;;;;;;6125157;23;20429;-84
2022/01/12 09:46:31;;;;;;;22.35;16.23;;;6.40;99.90;;;;;;6126348;23;19998;-84
2022/01/12 09:48:59;;;;;;;25.95;18.25;;;6.00;99.90;;;;;;6099603;23;20010;-84
2022/01/12 09:51:25;;;;;;;29.25;20.50;;;4.90;99.90;;;;;;6126173;23;20072;-84
2022/01/12 09:53:52;;;;;;;25.45;18.73;;;5.10;99.90;;;;;;6126101;23;20463;-84
2022/01/12 09:56:21;;;;;;;28.35;18.65;;;4.60;99.90;;;;;;6125717;23;20377;-84
2022/01/12 09:58:51;;;;;;;25.88;18.25;;;4.70;99.90;;;;;;6125238;23;20006;-84
2022/01/12 10:01:43;;;;;;;26.45;17.65;;;4.50;99.90;;;;;;6099983;23;20010;-84
2022/01/12 10:04:17;;;;;;;23.73;17.30;;;5.80;99.90;;;;;;6099869;23;20101;-84
2022/01/12 10:06:47;;;;;;;30.95;22.27;;;5.80;99.90;;;;;;6125798;23;19998;-85
2022/01/12 10:09:14;;;;;;;24.75;17.33;;;6.40;99.90;;;;;;6125306;23;20056;-84
2022/01/12 10:12:05;;;;;;;24.02;17.38;;;7.50;94.80;;;;;;6125070;23;20006;-84
2022/01/12 10:14:49;;;;;;;23.55;15.93;;;10.70;59.50;;;;;;6125699;23;20084;-85
2022/01/12 10:17:17;;;;;;;23.48;16.88;;;13.80;23.10;;;;;;6125411;23;20005;-85
2022/01/12 10:19:42;;;;;;;21.88;16.75;;;13.80;18.50;;;;;;6125932;23;20017;-85
2022/01/12 10:22:11;;;;;;;21.27;16.48;;;16.10;4.00;;;;;;6124900;23;20014;-85
2022/01/12 10:24:39;;;;;;;20.67;16.58;;;16.60;1.00;;;;;;6126042;23;20006;-85
2022/01/12 10:27:19;;;;;;;22.48;17.27;;;17.60;1.00;;;;;;6125070;23;20409;-85
2022/01/12 10:29:46;;;;;;;21.60;17.63;;;19.60;1.00;;;;;;6125463;23;20010;-85
2022/01/12 10:32:17;;;;;;;23.58;17.67;;;17.90;1.00;;;;;;6125206;23;20009;-85
2022/01/12 10:34:45;;;;;;;22.08;18.08;;;16.50;1.00;;;;;;6125142;23;20006;-85
2022/01/12 10:37:13;;;;;;;22.58;18.73;;;15.70;1.00;;;;;;6125950;23;20025;-86
2022/01/12 10:39:48;;;;;;;24.77;18.20;;;14.70;1.00;;;;;;6125258;23;20002;-85
2022/01/12 10:42:19;;;;;;;20.92;18.05;;;13.70;1.00;;;;;;6124822;23;20014;-85
2022/01/12 10:44:48;;;;;;;21.95;18.08;;;11.80;6.00;;;;;;6125458;23;20070;-85
2022/01/12 10:47:26;;;;;;;20.13;17.88;;;10.20;19.40;;;;;;6125566;23;20476;-85
2022/01/12 10:49:55;;;;;;;20.58;17.33;;;8.60;31.00;;;;;;6125430;23;20006;-84
2022/01/12 10:52:30;;;;;;;19.30;17.05;;;8.10;40.40;;;;;;6125595;23;20018;-84
2022/01/12 10:55:08;;;;;;;21.85;17.52;;;7.80;41.90;;;;;;6125058;23;20048;-84
2022/01/12 10:57:37;;;;;;;20.83;16.63;;;7.40;44.20;;;;;;6125558;23;20006;-85
2022/01/12 11:00:18;;;;;;;22.92;17.27;;;7.20;47.50;;;;;;6125511;23;20040;-85
2022/01/12 11:03:11;;;;;;;23.02;17.35;;;6.60;51.50;;;;;;6098981;23;20378;-85
2022/01/12 11:05:36;;;;;;;19.88;16.42;;;6.20;57.50;;;;;;6119075;23;20006;-85
2022/01/12 11:08:02;;;;;;;21.48;16.35;;;5.90;60.40;;;;;;6098950;23;20157;-84
2022/01/12 11:10:29;;;;;;;19.80;16.30;;;5.60;62.70;;;;;;6125429;23;19998;-85
2022/01/12 11:12:54;;;;;;;24.95;17.95;;;6.00;66.50;;;;;;6124599;23;20041;-84
2022/01/12 11:15:21;;;;;;;23.35;17.55;;;6.30;64.90;;;;;;6125238;23;20061;-85
2022/01/12 11:17:50;;;;;;;30.75;22.48;;;6.10;68.10;;;;;;6124602;23;20076;-85
2022/01/12 11:20:30;;;;;;;23.05;17.50;;;5.40;71.80;;;;;;6125647;23;20002;-85
2022/01/12 11:23:07;;;;;;;24.48;18.35;;;5.30;75.50;;;;;;6124785;23;20475;-85
2022/01/12 11:25:33;;;;;;;24.75;17.92;;;5.00;77.40;;;;;;6125159;23;19998;-85
2022/01/12 11:28:11;;;;;;;22.90;16.35;;;4.70;79.20;;;;;;6124566;23;20081;-85
2022/01/12 11:30:40;;;;;;;40.17;23.52;;;4.50;82.30;;;;;;6124564;23;20006;-84
2022/01/12 11:33:08;;;;;;;41.50;24.42;;;4.40;84.10;;;;;;6124541;23;20005;-85
2022/01/12 11:35:38;;;;;;;78.65;39.95;;;4.40;85.10;;;;;;6126464;23;20013;-84
2022/01/12 11:38:08;;;;;;;124.40;52.97;;;4.90;85.30;;;;;;6124931;23;20021;-85
2022/01/12 11:40:40;;;;;;;25.38;18.02;;;4.60;87.00;;;;;;6125592;23;20006;-85
2022/01/12 11:43:25;;;;;;;38.40;24.23;;;4.50;86.20;;;;;;6123852;23;20468;-85
2022/01/12 11:46:03;;;;;;;21.77;16.23;;;4.70;84.50;;;;;;6124413;23;20006;-84
2022/01/12 11:48:35;;;;;;;20.50;14.95;;;4.60;84.80;;;;;;6126192;23;20085;-85
2022/01/12 11:51:01;;;;;;;20.83;15.30;;;4.90;87.10;;;;;;6125968;23;20002;-84
2022/01/12 11:53:28;;;;;;;21.52;15.98;;;4.50;86.00;;;;;;6124697;23;20069;-85
2022/01/12 11:55:54;;;;;;;21.98;14.85;;;4.20;86.40;;;;;;6124468;23;20033;-85
2022/01/12 11:58:21;;;;;;;20.70;14.80;;;4.90;88.10;;;;;;6124893;23;20424;-84
2022/01/12 12:00:47;;;;;;;18.08;13.98;;;4.10;88.40;;;;;;6124422;23;20006;-85
2022/01/12 12:03:18;;;;;;;20.48;15.25;;;3.90;89.50;;;;;;6097922;23;20157;-85
2022/01/12 12:05:44;;;;;;;22.02;17.02;;;4.00;95.60;;;;;;6124987;23;20417;-85
2022/01/12 12:08:09;;;;;;;19.33;15.05;;;4.60;90.10;;;;;;6124425;23;20456;-85
2022/01/12 12:10:38;;;;;;;21.55;15.57;;;4.20;87.50;;;;;;6124794;23;20017;-84
2022/01/12 12:13:06;;;;;;;19.60;14.40;;;4.20;92.30;;;;;;6124281;23;20029;-84
2022/01/12 12:15:32;;;;;;;20.92;14.57;;;4.60;91.00;;;;;;6124185;23;20394;-84
2022/01/12 12:18:00;;;;;;;21.50;16.33;;;4.40;90.80;;;;;;6125014;23;20006;-85
2022/01/12 12:20:26;;;;;;;22.10;15.50;;;4.30;91.30;;;;;;6124212;23;20009;-84
2022/01/12 12:22:52;;;;;;;21.20;15.95;;;3.70;91.00;;;;;;6124738;23;20014;-84
2022/01/12 12:25:27;;;;;;;20.70;15.68;;;3.80;91.10;;;;;;6122592;23;20005;-85
2022/01/12 12:27:55;;;;;;;22.77;16.65;;;3.80;92.20;;;;;;6124309;23;20026;-84
2022/01/12 12:30:22;;;;;;;23.13;16.92;;;4.40;93.00;;;;;;6123913;23;20029;-84
2022/01/12 12:32:52;;;;;;;25.17;16.92;;;3.70;97.20;;;;;;6124714;23;20006;-84
2022/01/12 12:35:19;;;;;;;23.20;16.13;;;3.80;97.50;;;;;;6124449;23;20010;-85
2022/01/12 12:37:49;;;;;;;22.42;17.23;;;3.80;91.90;;;;;;6124304;23;20094;-84
2022/01/12 12:40:19;;;;;;;21.90;16.38;;;3.80;92.40;;;;;;6124010;23;20036;-84
2022/01/12 12:42:48;;;;;;;21.52;16.15;;;3.80;92.20;;;;;;6124665;23;20088;-84
2022/01/12 12:45:14;;;;;;;20.88;15.55;;;3.80;92.90;;;;;;6123573;23;19999;-84
2022/01/12 12:47:40;;;;;;;22.02;15.18;;;3.70;91.60;;;;;;6124130;23;20009;-85
2022/01/12 12:50:09;;;;;;;23.45;16.35;;;4.30;91.20;;;;;;6124489;23;20009;-85
2022/01/12 12:52:37;;;;;;;21.52;15.80;;;4.10;92.70;;;;;;6125556;23;20016;-84
2022/01/12 12:55:13;;;;;;;23.27;17.10;;;3.90;91.70;;;;;;6097512;23;20577;-84
2022/01/12 12:57:47;;;;;;;21.50;15.55;;;4.00;91.40;;;;;;6124062;23;20366;-84
2022/01/12 13:00:19;;;;;;;20.98;15.60;;;4.80;91.20;;;;;;6123784;23;20010;-85
2022/01/12 13:02:48;;;;;;;21.85;15.85;;;4.20;90.00;;;;;;6124565;23;20061;-84
2022/01/12 13:05:34;;;;;;;23.27;15.80;;;4.10;96.90;;;;;;6123969;23;20500;-85
2022/01/12 13:08:01;;;;;;;24.88;16.75;;;4.00;91.70;;;;;;6123978;23;20006;-85
2022/01/12 13:10:32;;;;;;;22.67;15.93;;;3.80;97.70;;;;;;6124138;23;20329;-84
2022/01/12 13:13:00;;;;;;;21.58;15.57;;;4.20;93.60;;;;;;6123800;23;20009;-84
2022/01/12 13:15:30;;;;;;;20.90;15.40;;;4.30;93.40;;;;;;6125047;23;20456;-85
2022/01/12 13:18:17;;;;;;;21.70;15.52;;;3.80;93.40;;;;;;6125280;23;20328;-85
2022/01/12 13:23:37;;;;;;;19.52;14.65;;;3.60;94.40;;;;;;6125308;23;20404;-85
2022/01/12 13:26:06;;;;;;;20.15;14.75;;;3.60;94.30;;;;;;6126103;23;20421;-85
2022/01/12 13:28:37;;;;;;;20.60;15.32;;;3.60;94.10;;;;;;6126565;23;20010;-85
2022/01/12 13:31:07;;;;;;;20.60;15.30;;;4.20;94.80;;;;;;6125654;23;19998;-85
2022/01/12 13:33:39;;;;;;;22.33;15.57;;;3.60;94.00;;;;;;6125885;23;20077;-85
2022/01/12 13:36:17;;;;;;;24.92;16.52;;;3.60;94.40;;;;;;6126447;23;20006;-85
2022/01/12 16:48:56;;;;;;;153.68;54.45;;;2.80;99.40;;;;;;6122458;23;20022;-85
2022/01/12 16:51:22;;;;;;;79.20;41.85;;;2.70;99.70;;;;;;6123378;23;20013;-85
2022/01/12 16:53:48;;;;;;;26.80;19.63;;;2.80;99.40;;;;;;6097169;23;20018;-85
2022/01/12 16:56:15;;;;;;;28.75;18.60;;;3.40;98.90;;;;;;6097899;23;20065;-85
2022/01/12 16:58:43;;;;;;;33.58;21.45;;;2.50;99.40;;;;;;6124511;23;20012;-84
2022/01/12 17:01:10;;;;;;;35.45;23.75;;;2.50;99.90;;;;;;6124097;23;20440;-85
2022/01/12 17:03:38;;;;;;;54.15;32.20;;;2.60;99.90;;;;;;6123426;23;20402;-85
2022/01/12 17:06:08;;;;;;;40.25;24.63;;;2.70;99.50;;;;;;6123894;23;20005;-85
2022/01/12 17:08:35;;;;;;;185.02;87.85;;;2.80;99.90;;;;;;6123850;23;20006;-85
2022/01/12 17:11:01;;;;;;;145.32;70.53;;;2.90;99.00;;;;;;6098414;23;20012;-85
2022/01/12 17:13:27;;;;;;;53.88;32.03;;;2.90;99.00;;;;;;6124736;23;20115;-84
2022/01/12 17:15:56;;;;;;;299.50;124.75;;;3.00;97.80;;;;;;6123907;23;20325;-85
2022/01/12 17:18:57;;;;;;;221.75;92.65;;;3.00;98.30;;;;;;6124038;23;20009;-85
2022/01/12 17:21:24;;;;;;;92.28;49.83;;;3.00;98.80;;;;;;6124017;23;20336;-85
2022/01/12 17:24:10;;;;;;;33.00;21.98;;;2.90;98.20;;;;;;6123477;23;20006;-85
2022/01/12 17:26:45;;;;;;;46.00;30.88;;;2.90;99.70;;;;;;6124266;23;20010;-85